Argo Village, New York
Current Conditions -  °F | °C
As of 2:51 AM on Thursday 29 Jan 2015 (Local Time) from KJFK Reporting Station
Clear Clear  
Wind Chill: 11°   Ceiling: Unl
Heat Index: 21°   Visibility: 10mi
Dew Point:   Wind: 9mph
Humidity: 44%   Direction: 340°NNW
Pressure: 30.31"   Gusts: NA
Location:  40.7013°N, 73.7074°W
Report Text: KJFK 290751Z 34008KT 10SM CLR M06/M17 A3031 RMK AO2 SLP264 T10611167 $
Loading
Personal Weather Stations






























Interactive Weather Map New forecast layout! Learn more

10-Day Weather Forecast

Advertisements
Track Severe Weather on mobile